createdAt,value
2023-01-13T00:26:51.254Z,10.01
2023-01-13T00:27:51.231Z,9.97
2023-01-13T00:28:52.878Z,9.98
2023-01-13T00:29:52.222Z,9.95
2023-01-13T00:30:51.238Z,9.95
2023-01-13T00:31:54.878Z,9.95
2023-01-13T00:32:51.201Z,9.95
2023-01-13T00:33:51.886Z,9.89
2023-01-13T00:34:52.897Z,9.92
2023-01-13T00:35:51.947Z,9.92
2023-01-13T00:36:54.963Z,9.86
2023-01-13T00:37:52.242Z,9.94
2023-01-13T00:38:52.236Z,9.94
2023-01-13T00:39:52.238Z,9.89
2023-01-13T00:40:52.226Z,9.99
2023-01-13T00:41:52.211Z,9.87
2023-01-13T00:42:52.214Z,9.87
2023-01-13T00:43:52.196Z,9.91
2023-01-13T00:44:52.186Z,9.89
2023-01-13T00:45:52.190Z,9.91
2023-01-13T00:46:52.229Z,9.95
2023-01-13T00:47:52.196Z,9.92
2023-01-13T00:48:52.163Z,9.94
2023-01-13T00:49:52.160Z,9.97
2023-01-13T00:50:52.131Z,10.01
2023-01-13T00:51:52.139Z,9.89
2023-01-13T00:52:52.127Z,10.04
2023-01-13T00:53:52.887Z,9.94
2023-01-13T00:54:52.101Z,9.97
2023-01-13T00:55:52.092Z,10.04
2023-01-13T00:56:52.102Z,10.07
2023-01-13T00:57:52.087Z,10.07
2023-01-13T00:58:52.085Z,10.01
2023-01-13T00:59:52.079Z,10.05
2023-01-13T01:00:52.223Z,9.91
2023-01-13T01:01:52.211Z,9.87
2023-01-13T01:02:52.057Z,9.94
2023-01-13T01:03:52.038Z,9.97
2023-01-13T01:04:52.064Z,9.94
2023-01-13T01:05:52.006Z,9.97
2023-01-13T01:06:52.014Z,9.98
2023-01-13T01:07:51.992Z,9.91
2023-01-13T01:08:51.992Z,9.94
2023-01-13T01:09:51.975Z,9.89
2023-01-13T01:10:51.976Z,9.86
2023-01-13T01:11:51.970Z,9.94
2023-01-13T01:12:51.956Z,9.97
2023-01-13T01:13:51.954Z,9.98
2023-01-13T01:14:51.941Z,9.92
2023-01-13T01:15:51.947Z,10.10
2023-01-13T01:16:51.916Z,9.95
2023-01-13T01:17:51.910Z,9.94
2023-01-13T01:18:51.920Z,9.92
2023-01-13T01:19:51.895Z,10.12
2023-01-13T01:20:51.890Z,10.05
2023-01-13T01:21:51.878Z,10.01
2023-01-13T01:22:51.879Z,10.01
2023-01-13T01:23:51.893Z,10.02
2023-01-13T01:24:51.851Z,10.01
2023-01-13T01:25:52.847Z,10.07
2023-01-13T01:26:51.833Z,10.01
2023-01-13T01:27:51.836Z,10.04
2023-01-13T01:28:51.839Z,10.04
2023-01-13T01:29:51.815Z,10.07
2023-01-13T01:30:51.808Z,10.09
2023-01-13T01:31:51.812Z,10.04
2023-01-13T01:32:51.795Z,10.05
2023-01-13T01:33:51.778Z,10.07
2023-01-13T01:34:51.778Z,10.04
2023-01-13T01:35:51.765Z,9.98
2023-01-13T01:36:51.781Z,10.10
2023-01-13T01:37:51.752Z,10.04
2023-01-13T01:38:51.743Z,9.99
2023-01-13T01:39:51.727Z,10.02
2023-01-13T01:40:51.717Z,10.10
2023-01-13T01:41:51.734Z,10.12
2023-01-13T01:42:51.760Z,10.05
2023-01-13T01:43:51.710Z,10.10
2023-01-13T01:44:51.688Z,10.09
2023-01-13T01:45:51.692Z,10.12
2023-01-13T01:46:51.776Z,10.04
2023-01-13T01:47:51.671Z,10.09
2023-01-13T01:48:51.655Z,9.99
2023-01-13T01:49:51.651Z,10.04
2023-01-13T01:50:51.647Z,10.01
2023-01-13T01:51:51.660Z,10.10
2023-01-13T01:52:51.640Z,9.97
2023-01-13T01:53:51.613Z,10.02
2023-01-13T01:54:51.615Z,10.02
2023-01-13T01:55:51.598Z,10.02
2023-01-13T01:56:51.593Z,10.05
2023-01-13T01:57:51.591Z,10.07
2023-01-13T01:58:51.568Z,10.09
2023-01-13T01:59:52.572Z,10.12
2023-01-13T02:00:51.690Z,10.10
2023-01-13T02:01:51.683Z,10.13
2023-01-13T02:02:52.507Z,10.10
2023-01-13T02:03:51.537Z,10.13
2023-01-13T02:04:51.554Z,10.10
2023-01-13T02:05:51.524Z,10.04
2023-01-13T02:06:52.421Z,10.15
2023-01-13T02:07:51.503Z,10.15
2023-01-13T02:08:51.499Z,10.07
2023-01-13T02:09:51.507Z,10.09
2023-01-13T02:10:51.479Z,10.01
2023-01-13T02:11:51.475Z,9.99
2023-01-13T02:12:51.468Z,9.95
2023-01-13T02:13:51.504Z,9.94
2023-01-13T02:14:51.451Z,9.92
2023-01-13T02:15:52.018Z,9.94
2023-01-13T02:16:51.444Z,10.02
2023-01-13T02:17:51.426Z,9.91
2023-01-13T02:18:51.440Z,9.97
2023-01-13T02:19:51.410Z,9.94
2023-01-13T02:20:53.012Z,10.04
2023-01-13T02:21:51.400Z,9.99
2023-01-13T02:22:51.986Z,10.07
2023-01-13T02:23:51.385Z,10.10
2023-01-13T02:24:51.374Z,10.09
2023-01-13T02:25:51.379Z,10.15
2023-01-13T02:26:51.373Z,10.16
2023-01-13T02:27:51.350Z,10.07
2023-01-13T02:28:51.349Z,10.13
2023-01-13T02:29:51.345Z,10.19
2023-01-13T02:30:51.338Z,10.19
2023-01-13T02:31:51.377Z,10.26
2023-01-13T02:32:51.311Z,10.19
2023-01-13T02:33:51.310Z,10.17
2023-01-13T02:34:51.328Z,10.20
2023-01-13T02:35:51.303Z,10.19
2023-01-13T02:36:51.292Z,10.25
2023-01-13T02:37:51.276Z,10.20
2023-01-13T02:38:51.268Z,10.17
2023-01-13T02:39:51.255Z,10.23
2023-01-13T02:40:51.263Z,10.22
2023-01-13T02:41:51.255Z,10.23
2023-01-13T02:42:51.233Z,10.28
2023-01-13T02:43:51.236Z,10.26
2023-01-13T02:44:51.233Z,10.15
2023-01-13T02:45:51.246Z,10.17
2023-01-13T02:46:51.217Z,10.17
2023-01-13T02:47:51.209Z,10.13
2023-01-13T02:48:51.196Z,10.20
2023-01-13T02:49:51.215Z,10.19
2023-01-13T02:50:51.283Z,10.15
2023-01-13T02:51:51.181Z,10.10
2023-01-13T02:52:51.160Z,10.05
2023-01-13T02:53:51.143Z,10.13
2023-01-13T02:54:51.148Z,10.13
2023-01-13T02:55:51.135Z,10.09
2023-01-13T02:56:51.137Z,10.12
2023-01-13T02:57:51.122Z,10.15
2023-01-13T02:58:51.112Z,10.15
2023-01-13T02:59:51.115Z,10.17
2023-01-13T03:00:51.119Z,10.13
2023-01-13T03:01:51.359Z,10.23
2023-01-13T03:02:51.161Z,10.15
2023-01-13T03:03:51.931Z,10.16
2023-01-13T03:04:51.082Z,10.13
2023-01-13T03:05:51.062Z,10.10
2023-01-13T03:06:51.071Z,10.19
2023-01-13T03:07:51.043Z,10.12
2023-01-13T03:08:51.928Z,10.16
2023-01-13T03:09:51.941Z,10.15
2023-01-13T03:10:51.029Z,10.20
2023-01-13T03:11:51.933Z,10.16
2023-01-13T03:12:51.010Z,10.19
2023-01-13T03:13:50.999Z,10.19
2023-01-13T03:14:50.984Z,10.13
2023-01-13T03:15:50.978Z,10.17
2023-01-13T03:16:51.154Z,10.17
2023-01-13T03:17:50.971Z,10.15
2023-01-13T03:18:50.957Z,10.17
2023-01-13T03:19:50.948Z,10.25
2023-01-13T03:20:50.950Z,10.19
2023-01-13T03:21:50.926Z,10.17
2023-01-13T03:22:50.924Z,10.22
2023-01-13T03:23:57.430Z,10.23
2023-01-13T03:24:50.902Z,10.22
2023-01-13T03:25:50.892Z,10.17
2023-01-13T03:26:50.896Z,10.33
2023-01-13T03:27:51.519Z,10.23
2023-01-13T03:28:50.873Z,10.23
2023-01-13T03:29:50.875Z,10.30
2023-01-13T03:30:50.924Z,10.28
2023-01-13T03:31:50.851Z,10.19
2023-01-13T03:32:50.847Z,10.19
2023-01-13T03:33:50.852Z,10.20
2023-01-13T03:34:50.824Z,10.31
2023-01-13T03:35:50.816Z,10.28
2023-01-13T03:36:50.817Z,10.22
2023-01-13T03:37:50.802Z,10.25
2023-01-13T03:38:50.799Z,10.20
2023-01-13T03:39:50.778Z,10.20
2023-01-13T03:40:50.771Z,10.16
2023-01-13T03:41:50.772Z,10.10
2023-01-13T03:42:50.755Z,10.17
2023-01-13T03:43:50.812Z,10.20
2023-01-13T03:44:50.741Z,10.13
2023-01-13T03:45:50.784Z,10.07
2023-01-13T03:46:50.725Z,10.13
2023-01-13T03:47:50.717Z,10.15
2023-01-13T03:48:50.756Z,10.15
2023-01-13T03:49:50.702Z,10.16
2023-01-13T03:50:51.703Z,10.10
2023-01-13T03:51:50.687Z,10.16
2023-01-13T03:52:50.673Z,10.10
2023-01-13T03:53:50.679Z,10.10
2023-01-13T03:54:50.668Z,10.13
2023-01-13T03:55:50.681Z,10.09
2023-01-13T03:56:50.678Z,10.02
2023-01-13T03:57:50.657Z,10.09
2023-01-13T03:58:50.630Z,10.13
2023-01-13T03:59:50.618Z,10.07
2023-01-13T04:00:50.622Z,10.19
2023-01-13T04:01:50.732Z,10.16
2023-01-13T04:02:50.600Z,10.19
2023-01-13T04:03:50.650Z,10.31
2023-01-13T04:04:50.582Z,10.15
2023-01-13T04:05:50.598Z,10.20
2023-01-13T04:06:50.565Z,10.17
2023-01-13T04:07:50.564Z,10.23
2023-01-13T04:08:50.545Z,10.25
2023-01-13T04:09:50.567Z,10.25
2023-01-13T04:10:50.544Z,10.33
2023-01-13T04:11:50.527Z,10.34
2023-01-13T04:12:50.508Z,10.30
2023-01-13T04:13:50.558Z,10.28
2023-01-13T04:14:50.499Z,10.35
2023-01-13T04:15:50.537Z,10.38
2023-01-13T04:16:50.483Z,10.37
2023-01-13T04:17:50.483Z,10.28
2023-01-13T04:18:50.473Z,10.33
2023-01-13T04:19:50.489Z,10.37
2023-01-13T04:20:50.455Z,10.38
2023-01-13T04:21:50.450Z,10.31
2023-01-13T04:22:50.449Z,10.34
2023-01-13T04:23:50.453Z,10.30
2023-01-13T04:24:50.423Z,10.23
2023-01-13T04:25:50.410Z,10.28
2023-01-13T04:26:50.409Z,10.28
2023-01-13T04:27:50.404Z,10.25
2023-01-13T04:28:50.427Z,10.28
2023-01-13T04:29:50.946Z,10.26
2023-01-13T04:30:50.487Z,9.94
2023-01-13T04:31:50.376Z,9.87
2023-01-13T04:32:50.366Z,9.73
2023-01-13T04:33:50.360Z,9.56
2023-01-13T04:34:50.341Z,9.41
2023-01-13T04:35:50.332Z,9.36
2023-01-13T04:36:50.365Z,9.23
2023-01-13T04:37:50.312Z,9.19
2023-01-13T04:38:50.307Z,9.14
2023-01-13T04:39:50.314Z,9.11
2023-01-13T04:40:50.291Z,8.97
2023-01-13T04:41:50.288Z,8.95
2023-01-13T04:42:50.287Z,8.92
2023-01-13T04:43:50.265Z,8.92
2023-01-13T04:44:50.263Z,8.88
2023-01-13T04:45:50.248Z,8.85
2023-01-13T04:46:50.250Z,8.78
2023-01-13T04:47:50.954Z,8.85
2023-01-13T04:48:50.234Z,8.87
2023-01-13T04:49:50.222Z,8.70
2023-01-13T04:50:50.208Z,8.71
2023-01-13T04:51:50.203Z,8.67
2023-01-13T04:52:50.200Z,8.69
2023-01-13T04:53:50.187Z,8.73
2023-01-13T04:54:50.180Z,8.70
2023-01-13T04:55:50.185Z,8.73
2023-01-13T04:56:50.178Z,8.70
2023-01-13T04:57:50.164Z,8.73
2023-01-13T04:58:50.145Z,8.64
2023-01-13T04:59:51.137Z,8.67
2023-01-13T05:00:50.135Z,8.61
2023-01-13T05:01:50.271Z,8.73
2023-01-13T05:02:55.026Z,8.69
2023-01-13T05:03:52.018Z,8.63
2023-01-13T05:04:50.223Z,8.63
2023-01-13T05:05:50.095Z,8.69
2023-01-13T05:06:50.099Z,8.58
2023-01-13T05:07:50.086Z,8.64
2023-01-13T05:08:50.063Z,8.60
2023-01-13T05:09:50.089Z,8.63
2023-01-13T05:11:22.980Z,8.58
2023-01-13T05:11:50.038Z,8.64
2023-01-13T05:12:50.047Z,8.56
2023-01-13T05:13:50.533Z,8.60
2023-01-13T05:14:50.031Z,8.61
2023-01-13T05:15:52.000Z,8.53
2023-01-13T05:16:50.023Z,8.56
2023-01-13T05:17:49.995Z,8.51
2023-01-13T05:18:50.976Z,8.61
2023-01-13T05:19:49.981Z,8.60
2023-01-13T05:20:53.475Z,8.52
2023-01-13T05:21:49.960Z,8.55
2023-01-13T05:22:50.495Z,8.64
2023-01-13T05:23:54.564Z,8.51
2023-01-13T05:24:50.488Z,8.60
2023-01-13T05:25:54.954Z,8.61
2023-01-13T05:26:51.477Z,8.55
2023-01-13T05:27:50.917Z,8.52
2023-01-13T05:28:49.934Z,8.49
2023-01-13T05:29:49.887Z,8.56
2023-01-13T05:30:49.947Z,8.53
2023-01-13T05:31:50.501Z,8.53
2023-01-13T05:32:49.860Z,8.44
2023-01-13T05:33:49.854Z,8.51
2023-01-13T05:34:49.850Z,8.45
2023-01-13T05:35:49.899Z,8.42
2023-01-13T05:36:49.827Z,8.52
2023-01-13T05:37:49.820Z,8.46
2023-01-13T05:38:49.814Z,8.52
2023-01-13T05:39:49.810Z,8.45
2023-01-13T05:40:49.823Z,8.46
2023-01-13T05:41:49.794Z,8.42
2023-01-13T05:42:49.786Z,8.37
2023-01-13T05:43:49.774Z,8.42
2023-01-13T05:44:49.775Z,8.48
2023-01-13T05:45:49.755Z,8.38
2023-01-13T05:46:49.868Z,8.41
2023-01-13T05:47:49.736Z,8.31
2023-01-13T05:48:49.735Z,8.42
2023-01-13T05:49:49.726Z,8.23
2023-01-13T05:50:49.718Z,8.33
2023-01-13T05:51:50.524Z,8.33
2023-01-13T05:52:50.561Z,8.31
2023-01-13T05:53:50.491Z,8.27
2023-01-13T05:54:50.743Z,8.26
2023-01-13T05:55:51.493Z,8.24
2023-01-13T05:56:49.704Z,8.30
2023-01-13T05:57:49.669Z,8.16
2023-01-13T05:58:49.657Z,8.19
2023-01-13T05:59:49.645Z,8.18
2023-01-13T06:00:49.651Z,8.19
2023-01-13T06:01:49.654Z,8.23
2023-01-13T06:02:49.659Z,8.20
2023-01-13T06:03:49.641Z,8.30
2023-01-13T06:04:49.608Z,8.27
2023-01-13T06:05:49.598Z,8.15
2023-01-13T06:06:49.590Z,8.12
2023-01-13T06:07:49.605Z,8.08
2023-01-13T06:08:49.581Z,8.01
2023-01-13T06:09:49.572Z,8.03
2023-01-13T06:10:49.570Z,8.01
2023-01-13T06:11:49.556Z,7.94
2023-01-13T06:12:50.494Z,7.85
2023-01-13T06:13:49.558Z,7.94
2023-01-13T06:14:49.545Z,7.76
2023-01-13T06:15:49.552Z,7.75
2023-01-13T06:16:49.529Z,7.79
2023-01-13T06:17:49.508Z,7.60
2023-01-13T06:18:49.516Z,7.69
2023-01-13T06:19:49.496Z,7.70
2023-01-13T06:20:49.501Z,7.60
2023-01-13T06:21:49.482Z,7.58
2023-01-13T06:22:49.491Z,7.53
2023-01-13T06:23:50.990Z,7.60
2023-01-13T06:24:49.500Z,7.47
2023-01-13T06:25:49.459Z,7.53
2023-01-13T06:26:49.444Z,7.57
2023-01-13T06:27:49.440Z,7.53
2023-01-13T06:28:49.433Z,7.35
2023-01-13T06:29:49.427Z,7.28
2023-01-13T06:30:49.409Z,7.25
2023-01-13T06:31:49.456Z,7.24
2023-01-13T06:32:49.391Z,7.11
2023-01-13T06:33:50.073Z,7.14
2023-01-13T06:34:52.150Z,7.11
2023-01-13T06:35:49.379Z,7.20
2023-01-13T06:36:51.065Z,7.10
2023-01-13T06:37:49.377Z,7.05
2023-01-13T06:38:49.364Z,6.88
2023-01-13T06:39:49.341Z,6.89
2023-01-13T06:40:49.334Z,6.93
2023-01-13T06:41:49.335Z,6.87
2023-01-13T06:42:49.322Z,6.88
2023-01-13T06:43:49.369Z,6.84
2023-01-13T06:44:49.315Z,6.77
2023-01-13T06:45:49.298Z,6.72
2023-01-13T06:46:49.369Z,6.69
2023-01-13T06:47:49.274Z,6.64
2023-01-13T06:48:49.297Z,6.59
2023-01-13T06:49:49.278Z,6.62
2023-01-13T06:50:49.257Z,6.39
2023-01-13T06:51:49.254Z,6.39
2023-01-13T06:52:49.239Z,6.52
2023-01-13T06:53:49.233Z,6.45
2023-01-13T06:54:49.233Z,6.51
2023-01-13T06:55:49.214Z,6.52
2023-01-13T06:56:49.219Z,6.64
2023-01-13T06:57:49.191Z,6.56
2023-01-13T06:58:49.188Z,6.59
2023-01-13T06:59:50.626Z,6.64
2023-01-13T07:00:49.199Z,6.59
2023-01-13T07:01:49.390Z,6.64
2023-01-13T07:02:49.210Z,6.64
2023-01-13T07:03:49.145Z,6.70
2023-01-13T07:04:49.163Z,6.62
2023-01-13T07:05:49.133Z,6.72
2023-01-13T07:06:49.136Z,6.60
2023-01-13T07:07:49.135Z,6.74
2023-01-13T07:08:49.098Z,6.63
2023-01-13T07:09:49.116Z,6.54
2023-01-13T07:10:49.102Z,6.56
2023-01-13T07:11:49.094Z,6.52
2023-01-13T07:12:49.074Z,6.57
2023-01-13T07:13:49.070Z,6.51
2023-01-13T07:14:49.591Z,6.54
2023-01-13T07:15:49.058Z,6.51
2023-01-13T07:16:49.082Z,6.52
2023-01-13T07:17:49.575Z,6.57
2023-01-13T07:18:49.020Z,6.59
2023-01-13T07:19:49.035Z,6.62
2023-01-13T07:20:49.078Z,6.54
2023-01-13T07:21:50.585Z,6.59
2023-01-13T07:22:49.001Z,6.54
2023-01-13T07:23:49.015Z,6.57
2023-01-13T07:24:48.985Z,6.49
2023-01-13T07:25:48.967Z,6.59
2023-01-13T07:26:48.979Z,6.54
2023-01-13T07:27:48.948Z,6.51
2023-01-13T07:28:48.949Z,6.52
2023-01-13T07:29:48.937Z,6.60
2023-01-13T07:30:48.925Z,6.52
2023-01-13T07:31:50.069Z,6.57
2023-01-13T07:32:49.917Z,6.54
2023-01-13T07:33:48.911Z,6.44
2023-01-13T07:34:48.900Z,6.51
2023-01-13T07:35:48.880Z,6.49
2023-01-13T07:36:48.883Z,6.57
2023-01-13T07:37:48.876Z,6.64
2023-01-13T07:38:48.866Z,6.54
2023-01-13T07:39:48.842Z,6.57
2023-01-13T07:40:48.845Z,6.60
2023-01-13T07:41:50.584Z,6.57
2023-01-13T07:42:48.823Z,6.52
2023-01-13T07:43:48.840Z,6.59
2023-01-13T07:44:48.809Z,6.48
2023-01-13T07:45:48.858Z,6.51
2023-01-13T07:46:48.791Z,6.48
2023-01-13T07:47:48.784Z,6.54
2023-01-13T07:48:48.784Z,6.41
2023-01-13T07:49:48.762Z,6.44
2023-01-13T07:50:48.759Z,6.44
2023-01-13T07:51:48.757Z,6.45
2023-01-13T07:52:48.753Z,6.44
2023-01-13T07:53:48.742Z,6.45
2023-01-13T07:54:48.744Z,6.42
2023-01-13T07:55:49.515Z,6.45
2023-01-13T07:56:48.720Z,6.46
2023-01-13T07:57:48.700Z,6.59
2023-01-13T07:58:48.729Z,6.63
2023-01-13T07:59:48.712Z,6.49
2023-01-13T08:00:48.713Z,6.59
2023-01-13T08:01:48.801Z,6.60
2023-01-13T08:02:48.684Z,6.54
2023-01-13T08:03:48.655Z,6.62
2023-01-13T08:04:48.731Z,6.66
2023-01-13T08:05:48.641Z,6.67
2023-01-13T08:06:48.635Z,6.63
2023-01-13T08:07:48.636Z,6.69
2023-01-13T08:08:48.613Z,6.70
2023-01-13T08:09:48.619Z,6.77
2023-01-13T08:10:48.685Z,6.77
2023-01-13T08:11:48.589Z,6.74
2023-01-13T08:12:54.537Z,6.87
2023-01-13T08:13:49.583Z,6.85
2023-01-13T08:14:48.579Z,6.92
2023-01-13T08:15:48.568Z,6.93
2023-01-13T08:16:48.558Z,6.99
2023-01-13T08:17:48.534Z,6.99
2023-01-13T08:18:48.526Z,6.96
2023-01-13T08:19:48.530Z,7.05
2023-01-13T08:20:48.528Z,7.05
2023-01-13T08:21:48.514Z,7.18
2023-01-13T08:22:48.543Z,7.24
2023-01-13T08:23:48.498Z,7.36
2023-01-13T08:24:48.494Z,7.25
2023-01-13T08:25:48.487Z,7.28
2023-01-13T08:26:48.507Z,7.32
2023-01-13T08:27:48.464Z,7.36
2023-01-13T08:28:48.450Z,7.40
2023-01-13T08:29:48.445Z,7.38
2023-01-13T08:30:48.485Z,7.35
2023-01-13T08:31:48.424Z,7.43
2023-01-13T08:32:48.424Z,7.40
2023-01-13T08:33:48.418Z,7.38
2023-01-13T08:34:48.438Z,7.38
2023-01-13T08:35:48.403Z,7.53
2023-01-13T08:36:48.398Z,7.48
2023-01-13T08:37:48.387Z,7.51
2023-01-13T08:38:48.370Z,7.51
2023-01-13T08:39:48.368Z,7.51
2023-01-13T08:40:48.365Z,7.60
2023-01-13T08:41:48.348Z,7.51
2023-01-13T08:42:48.836Z,7.50
2023-01-13T08:43:49.329Z,7.70
2023-01-13T08:44:48.364Z,7.66
2023-01-13T08:45:48.388Z,7.75
2023-01-13T08:46:48.313Z,7.75
2023-01-13T08:47:48.318Z,7.66
2023-01-13T08:48:48.327Z,7.69
2023-01-13T08:49:48.287Z,7.75
2023-01-13T08:50:50.018Z,7.73
2023-01-13T08:51:48.615Z,7.75
2023-01-13T08:52:48.270Z,7.80
2023-01-13T08:53:48.261Z,7.82
2023-01-13T08:54:48.247Z,7.93
2023-01-13T08:55:48.240Z,7.91
2023-01-13T08:56:48.285Z,8.01
2023-01-13T08:57:48.216Z,7.98
2023-01-13T08:58:48.220Z,8.00
2023-01-13T08:59:48.196Z,7.98
2023-01-13T09:00:48.232Z,7.97
2023-01-13T09:01:48.334Z,8.09
2023-01-13T09:02:48.175Z,8.16
2023-01-13T09:03:48.170Z,8.19
2023-01-13T09:04:48.266Z,8.28
2023-01-13T09:05:48.169Z,8.34
2023-01-13T09:06:48.149Z,8.44
2023-01-13T09:07:48.148Z,8.48
2023-01-13T09:08:48.138Z,8.56
2023-01-13T09:09:48.128Z,8.76
2023-01-13T09:10:48.113Z,8.66
2023-01-13T09:11:48.121Z,8.74
2023-01-13T09:12:48.111Z,8.82
2023-01-13T09:13:48.105Z,8.82
2023-01-13T09:14:48.105Z,8.89
2023-01-13T09:15:48.106Z,8.99
2023-01-13T09:16:48.074Z,9.00
2023-01-13T09:17:48.058Z,9.06
2023-01-13T09:18:49.617Z,9.03
2023-01-13T09:19:48.040Z,9.03
2023-01-13T09:20:48.038Z,9.08
2023-01-13T09:21:48.063Z,9.21
2023-01-13T09:22:48.029Z,9.23
2023-01-13T09:23:48.015Z,9.21
2023-01-13T09:24:48.001Z,9.26
2023-01-13T09:25:48.000Z,9.25
2023-01-13T09:26:47.991Z,9.26
2023-01-13T09:27:47.988Z,9.29
2023-01-13T09:28:47.973Z,9.29
2023-01-13T09:29:48.524Z,9.29
2023-01-13T09:30:48.600Z,9.26
2023-01-13T09:31:47.948Z,9.29
2023-01-13T09:32:47.959Z,9.34
2023-01-13T09:33:47.930Z,9.31
2023-01-13T09:34:47.932Z,9.36
2023-01-13T09:35:47.932Z,9.26
2023-01-13T09:36:48.528Z,9.25
2023-01-13T09:37:47.910Z,9.28
2023-01-13T09:38:47.889Z,9.21
2023-01-13T09:39:47.915Z,9.19
2023-01-13T09:40:47.888Z,9.21
2023-01-13T09:41:47.878Z,9.13
2023-01-13T09:42:47.857Z,9.19
2023-01-13T09:43:47.864Z,9.14
2023-01-13T09:44:47.854Z,9.14
2023-01-13T09:45:47.856Z,9.11
2023-01-13T09:46:47.863Z,9.19
2023-01-13T09:47:47.829Z,9.23
2023-01-13T09:48:47.807Z,9.31
2023-01-13T09:49:47.848Z,9.25
2023-01-13T09:50:47.814Z,9.31
2023-01-13T09:51:47.804Z,9.31
2023-01-13T09:52:47.796Z,9.37
2023-01-13T09:53:47.781Z,9.39
2023-01-13T09:54:47.859Z,9.46
2023-01-13T09:55:47.753Z,9.41
2023-01-13T09:56:47.774Z,9.43
2023-01-13T09:57:47.741Z,9.58
2023-01-13T09:58:47.773Z,9.50
2023-01-13T09:59:47.744Z,9.50
2023-01-13T10:00:47.723Z,9.44
2023-01-13T10:01:47.709Z,9.54
2023-01-13T10:02:47.741Z,9.54
2023-01-13T10:03:50.579Z,9.59
2023-01-13T10:04:47.771Z,9.61
2023-01-13T10:05:47.683Z,9.56
2023-01-13T10:06:47.670Z,9.51
2023-01-13T10:07:48.891Z,9.58
2023-01-13T10:08:50.638Z,9.56
2023-01-13T10:09:49.553Z,9.65
2023-01-13T10:10:47.639Z,9.64
2023-01-13T10:11:47.639Z,9.65
2023-01-13T10:12:47.616Z,9.74
2023-01-13T10:13:47.619Z,9.84
2023-01-13T10:14:47.638Z,9.82
2023-01-13T10:15:47.628Z,9.77
2023-01-13T10:16:47.588Z,9.89
2023-01-13T10:17:47.576Z,9.98
2023-01-13T10:18:47.570Z,9.91
2023-01-13T10:19:47.581Z,9.94
2023-01-13T10:20:47.554Z,9.97
2023-01-13T10:21:47.560Z,10.02
2023-01-13T10:22:47.531Z,9.92
2023-01-13T10:23:47.532Z,9.94
2023-01-13T10:24:47.531Z,9.89
2023-01-13T10:25:47.548Z,9.91
2023-01-13T10:26:47.640Z,9.91
2023-01-13T10:27:47.507Z,9.83
2023-01-13T10:28:47.507Z,9.68
2023-01-13T10:29:47.471Z,9.73
2023-01-13T10:30:47.481Z,9.65
2023-01-13T10:31:48.047Z,9.64
2023-01-13T10:32:48.121Z,9.47
2023-01-13T10:33:47.458Z,9.55
2023-01-13T10:34:47.480Z,9.54
2023-01-13T10:35:47.442Z,9.54
2023-01-13T10:36:47.511Z,9.47
2023-01-13T10:37:47.417Z,9.48
2023-01-13T10:38:47.413Z,9.41
2023-01-13T10:39:47.409Z,9.41
2023-01-13T10:40:47.395Z,9.26
2023-01-13T10:41:47.399Z,9.26
2023-01-13T10:42:47.390Z,9.26
2023-01-13T10:43:47.366Z,9.18
2023-01-13T10:44:47.371Z,9.14
2023-01-13T10:45:47.350Z,9.06
2023-01-13T10:46:47.404Z,9.03
2023-01-13T10:47:48.050Z,8.95
2023-01-13T10:48:47.332Z,9.02
2023-01-13T10:49:48.153Z,9.06
2023-01-13T10:50:47.316Z,8.99
2023-01-13T10:51:47.307Z,8.92
2023-01-13T10:52:48.008Z,8.92
2023-01-13T10:53:47.291Z,8.94
2023-01-13T10:54:47.307Z,9.04
2023-01-13T10:55:49.527Z,9.04
2023-01-13T10:56:47.326Z,9.14
2023-01-13T10:57:47.272Z,9.19
2023-01-13T10:58:47.250Z,9.34
2023-01-13T10:59:47.236Z,9.40
2023-01-13T11:00:47.255Z,9.62
2023-01-13T11:01:47.317Z,9.56
2023-01-13T11:02:47.438Z,9.69
2023-01-13T11:03:47.217Z,9.59
2023-01-13T11:04:47.262Z,9.72
2023-01-13T11:05:47.232Z,9.69
2023-01-13T11:06:48.066Z,9.61
2023-01-13T11:07:47.205Z,9.72
2023-01-13T11:08:47.189Z,9.74
2023-01-13T11:09:47.177Z,9.84
2023-01-13T11:10:47.152Z,9.86
2023-01-13T11:11:47.170Z,9.92
2023-01-13T11:12:47.229Z,10.02
2023-01-13T11:13:47.137Z,9.91
2023-01-13T11:14:48.075Z,9.95
2023-01-13T11:15:47.145Z,9.94
2023-01-13T11:16:53.142Z,10.02
2023-01-13T11:17:49.103Z,10.12
2023-01-13T11:18:47.088Z,9.98
2023-01-13T11:19:47.090Z,10.05
2023-01-13T11:20:47.074Z,9.92
2023-01-13T11:21:47.075Z,9.98
2023-01-13T11:22:47.068Z,9.98
2023-01-13T11:23:47.059Z,10.02
2023-01-13T11:24:48.901Z,9.98
2023-01-13T11:25:47.027Z,10.13
2023-01-13T11:26:47.020Z,10.09
2023-01-13T11:27:47.021Z,10.25
2023-01-13T11:28:47.014Z,10.23
2023-01-13T11:29:47.036Z,10.28
2023-01-13T11:30:47.770Z,10.23
2023-01-13T11:31:47.007Z,10.33
2023-01-13T11:32:46.985Z,10.34
2023-01-13T11:33:46.984Z,10.44
2023-01-13T11:34:46.977Z,10.34
2023-01-13T11:35:47.943Z,10.33
2023-01-13T11:36:46.957Z,10.41
2023-01-13T11:37:46.934Z,10.44
2023-01-13T11:38:46.962Z,10.49
2023-01-13T11:39:46.914Z,10.53
2023-01-13T11:40:46.916Z,10.48
2023-01-13T11:41:46.908Z,10.63
2023-01-13T11:42:46.913Z,10.63
2023-01-13T11:43:46.910Z,10.72
2023-01-13T11:44:46.875Z,10.61
2023-01-13T11:45:46.900Z,10.60
2023-01-13T11:46:46.964Z,10.48
2023-01-13T11:48:34.430Z,10.57
2023-01-13T11:49:34.466Z,10.60
2023-01-13T11:50:36.164Z,10.64
2023-01-13T11:51:35.515Z,10.61
2023-01-13T11:52:35.496Z,10.61
2023-01-13T11:53:35.502Z,10.64
2023-01-13T11:54:35.493Z,10.68
2023-01-13T11:55:35.489Z,10.60
2023-01-13T11:56:35.474Z,10.75
2023-01-13T11:57:35.474Z,10.56
2023-01-13T11:58:45.600Z,10.71
2023-01-13T11:59:37.444Z,10.59
2023-01-13T12:00:35.474Z,10.44
2023-01-13T12:01:36.130Z,10.54
2023-01-13T12:02:35.426Z,10.54
2023-01-13T12:03:36.225Z,10.42
2023-01-13T12:04:35.423Z,10.48
2023-01-13T12:05:35.409Z,10.51
2023-01-13T12:06:35.416Z,10.40
2023-01-13T12:07:35.382Z,10.48
2023-01-13T12:08:35.399Z,10.40
2023-01-13T12:09:35.376Z,10.41
2023-01-13T12:10:35.392Z,10.34
2023-01-13T12:11:35.349Z,10.25
2023-01-13T12:12:35.336Z,10.28
2023-01-13T12:13:35.335Z,10.40
2023-01-13T12:14:36.189Z,10.20
2023-01-13T12:15:35.323Z,10.30
2023-01-13T12:16:36.286Z,10.38
2023-01-13T12:17:44.962Z,10.34
2023-01-13T12:18:35.292Z,10.35
2023-01-13T12:19:35.281Z,10.42
2023-01-13T12:20:35.275Z,10.49
2023-01-13T12:21:35.273Z,10.67
2023-01-13T12:22:36.833Z,10.69
2023-01-13T12:23:36.255Z,10.56
2023-01-13T12:24:35.267Z,10.63
2023-01-13T12:25:36.210Z,10.68
2023-01-13T12:26:35.251Z,10.78
2023-01-13T12:27:35.221Z,10.69
2023-01-13T12:28:35.267Z,10.72
2023-01-13T12:29:35.213Z,10.72
2023-01-13T12:30:35.201Z,10.74
2023-01-13T12:31:35.372Z,10.60
2023-01-13T12:32:36.712Z,10.54
2023-01-13T12:33:35.177Z,10.59
2023-01-13T12:34:35.249Z,10.46
2023-01-13T12:35:35.172Z,10.53
2023-01-13T12:36:35.161Z,10.41
2023-01-13T12:37:35.710Z,10.56
2023-01-13T12:38:35.127Z,10.37
2023-01-13T12:39:36.713Z,10.53
2023-01-13T12:40:35.117Z,10.37
2023-01-13T12:41:35.105Z,10.38
2023-01-13T12:42:35.114Z,10.33
2023-01-13T12:43:35.091Z,10.31
2023-01-13T12:44:35.082Z,10.26
2023-01-13T12:45:35.105Z,10.31
2023-01-13T12:46:35.076Z,10.20
2023-01-13T12:47:35.052Z,10.28
2023-01-13T12:48:35.049Z,10.22
2023-01-13T12:49:35.046Z,10.26
2023-01-13T12:50:35.029Z,10.34
2023-01-13T12:51:35.026Z,10.30
2023-01-13T12:52:35.017Z,10.26
2023-01-13T12:53:35.007Z,10.25
2023-01-13T12:54:35.038Z,10.31
2023-01-13T12:55:35.148Z,10.23
2023-01-13T12:56:36.502Z,10.22
2023-01-13T12:57:36.640Z,10.33
2023-01-13T12:58:34.967Z,10.31
2023-01-13T12:59:34.962Z,10.30
2023-01-13T13:00:34.950Z,10.37
2023-01-13T13:01:35.063Z,10.44
2023-01-13T13:02:34.947Z,10.54
2023-01-13T13:03:34.931Z,10.37
2023-01-13T13:04:38.650Z,10.40
2023-01-13T13:05:35.686Z,10.35
2023-01-13T13:06:35.919Z,10.33
2023-01-13T13:07:34.892Z,10.28
2023-01-13T13:08:35.744Z,10.17
2023-01-13T13:09:34.870Z,10.10
2023-01-13T13:10:36.646Z,9.92
2023-01-13T13:11:34.856Z,9.80
2023-01-13T13:12:34.843Z,9.83
2023-01-13T13:13:34.851Z,9.80
2023-01-13T13:14:34.916Z,9.79
2023-01-13T13:15:34.821Z,9.83
2023-01-13T13:16:34.845Z,9.72
2023-01-13T13:17:34.801Z,9.84
2023-01-13T13:18:34.787Z,9.80
2023-01-13T13:19:34.785Z,9.79
2023-01-13T13:20:35.218Z,9.69
2023-01-13T13:21:34.775Z,9.59
2023-01-13T13:22:35.759Z,9.66
2023-01-13T13:23:34.760Z,9.69
2023-01-13T13:24:34.757Z,9.69
2023-01-13T13:25:34.747Z,9.79
2023-01-13T13:26:34.728Z,9.79
2023-01-13T13:27:35.719Z,9.76
2023-01-13T13:28:34.714Z,9.89
2023-01-13T13:29:34.705Z,10.05
2023-01-13T13:30:34.728Z,10.12
2023-01-13T13:31:34.718Z,10.13
2023-01-13T13:32:34.705Z,10.12
2023-01-13T13:33:35.218Z,10.13
2023-01-13T13:34:34.668Z,10.13
2023-01-13T13:35:34.667Z,10.12